Time;durP1;ratioP1;P1;durP2;ratioP2;P2;SDS_P1;SDS_P2;PMS_P1;PMS_P2;Temp;Humidity;BMP_temperature;BMP_pressure;BME280_temperature;BME280_humidity;BME280_pressure;Samples;Min_cycle;Max_cycle;Signal;HPM_P1;HPM_P2
2022/02/11 00:00:20;;;;;;;;;22.25;18.50;;;;;7.48;59.12;102055.31;146597;569;46016;-77
2022/02/11 00:09:14;;;;;;;;;10.00;10.00;;;;;7.32;59.29;102058.22;146600;579;46021;-73
2022/02/11 00:12:07;;;;;;;;;13.50;10.75;;;;;7.27;59.28;102087.91;146602;576;45915;-74
2022/02/11 00:15:22;;;;;;;;;12.75;10.25;;;;;7.25;59.13;102050.75;146591;609;46914;-73
2022/02/11 00:18:13;;;;;;;;;12.00;11.00;;;;;7.17;58.55;102045.84;146600;599;46914;-73
2022/02/11 00:21:05;;;;;;;;;10.00;7.50;;;;;7.12;58.52;102053.97;146605;582;46008;-72
2022/02/11 00:23:57;;;;;;;;;10.25;9.25;;;;;7.13;58.98;102048.94;146599;619;46016;-73
2022/02/11 00:27:10;;;;;;;;;14.25;12.50;;;;;7.14;59.24;102047.28;146602;575;46020;-73
2022/02/11 00:30:30;;;;;;;;;16.75;15.50;;;;;7.08;58.64;102034.75;146602;660;46010;-73
2022/02/11 00:33:27;;;;;;;;;20.75;15.25;;;;;7.03;59.77;102050.59;146603;611;46012;-73
2022/02/11 00:36:23;;;;;;;;;19.50;15.25;;;;;6.98;59.92;102057.94;146598;583;46016;-78
2022/02/11 01:13:13;;;;;;;;;10.00;9.75;;;;;6.85;59.08;102021.53;146601;571;46008;-73
2022/02/11 01:16:11;;;;;;;;;9.50;9.00;;;;;6.83;59.57;102013.69;146605;591;46914;-74
2022/02/11 02:58:27;;;;;;;;;49.75;39.50;;;;;6.19;61.90;101967.69;146586;600;46016;-73
2022/02/11 04:22:26;;;;;;;;;22.25;20.25;;;;;4.86;67.32;101948.75;146597;600;46016;-76
2022/02/11 04:56:47;;;;;;;;;25.75;20.50;;;;;4.88;70.32;101974.56;146595;573;46032;-73
2022/02/11 04:59:40;;;;;;;;;28.25;26.50;;;;;4.95;68.08;101960.62;146593;566;46914;-72
2022/02/11 05:02:35;;;;;;;;;28.50;25.00;;;;;5.00;67.33;101967.09;146597;581;46023;-72
2022/02/11 05:05:28;;;;;;;;;22.00;19.25;;;;;5.08;66.71;101968.75;146597;586;47013;-73
2022/02/11 05:08:28;;;;;;;;;21.25;18.25;;;;;5.12;67.22;101962.22;146596;584;46020;-72
2022/02/11 05:11:20;;;;;;;;;14.50;14.25;;;;;5.13;66.23;101964.91;146595;617;46016;-76
2022/02/11 05:14:13;;;;;;;;;13.50;10.75;;;;;5.16;68.39;101978.03;146593;629;46020;-78
2022/02/11 05:17:05;;;;;;;;;16.50;15.75;;;;;5.20;66.34;101977.59;146594;630;47010;-75
2022/02/11 05:19:57;;;;;;;;;14.00;13.75;;;;;5.25;65.31;101984.03;146598;579;46008;-74
2022/02/11 05:22:49;;;;;;;;;14.50;10.00;;;;;5.32;65.60;101988.06;146604;605;46010;-79
2022/02/11 05:25:44;;;;;;;;;17.50;16.50;;;;;5.39;65.09;101987.91;146597;603;47008;-75
2022/02/11 05:28:36;;;;;;;;;13.25;13.25;;;;;5.42;66.54;101995.91;146595;610;46017;-77
2022/02/11 05:31:29;;;;;;;;;14.25;14.00;;;;;5.40;65.78;101999.09;146601;589;46008;-76
2022/02/11 05:34:21;;;;;;;;;18.75;16.75;;;;;5.35;65.82;102000.31;146599;564;46016;-72
2022/02/11 05:37:14;;;;;;;;;21.75;20.00;;;;;5.31;65.24;101997.47;146597;578;46021;-73
2022/02/11 05:40:07;;;;;;;;;26.00;20.75;;;;;5.29;65.43;102004.13;146601;569;46010;-75
2022/02/11 05:43:00;;;;;;;;;34.50;29.25;;;;;5.32;65.66;102012.13;146589;695;46021;-74
2022/02/11 05:45:52;;;;;;;;;46.75;36.25;;;;;5.32;65.23;102014.69;146595;600;46027;-74
2022/02/11 05:48:45;;;;;;;;;46.75;36.25;;;;;5.35;66.49;102010.63;146600;600;46020;-75
2022/02/11 05:51:37;;;;;;;;;69.50;53.25;;;;;5.31;66.00;102005.19;146596;616;46012;-73
2022/02/11 05:54:29;;;;;;;;;70.75;53.00;;;;;5.30;65.65;102013.66;146597;628;46020;-73
2022/02/11 05:57:21;;;;;;;;;29.50;28.25;;;;;5.28;66.51;102004.91;146596;581;46013;-73
2022/02/11 06:00:14;;;;;;;;;36.00;32.00;;;;;5.28;66.03;102015.19;146600;604;47008;-73
2022/02/11 06:03:06;;;;;;;;;36.50;33.25;;;;;5.42;66.50;102007.84;146602;624;46010;-72
2022/02/11 06:05:59;;;;;;;;;36.75;33.50;;;;;6.24;66.60;102009.31;146598;624;46020;-72
2022/02/11 06:08:51;;;;;;;;;18.50;13.50;;;;;7.40;63.61;102013.34;146599;565;46016;-73
2022/02/11 06:11:43;;;;;;;;;19.50;17.75;;;;;8.45;60.62;101999.63;146591;626;46020;-72
2022/02/11 06:14:37;;;;;;;;;20.50;18.25;;;;;9.45;58.60;101992.78;146598;566;46017;-71
2022/02/11 06:17:29;;;;;;;;;19.00;16.25;;;;;10.45;56.57;101997.56;146597;594;46020;-72
2022/02/11 06:20:27;;;;;;;;;31.50;28.50;;;;;11.41;54.76;101996.56;146600;627;46914;-73
2022/02/11 06:23:20;;;;;;;;;26.00;24.00;;;;;12.26;52.71;101995.28;146599;588;47008;-74
2022/02/11 06:26:12;;;;;;;;;25.25;22.00;;;;;12.94;50.44;102000.44;146596;641;46012;-73
2022/02/11 06:29:04;;;;;;;;;33.00;28.25;;;;;13.51;50.08;101997.00;146600;569;46020;-74
2022/02/11 06:31:58;;;;;;;;;27.00;24.00;;;;;14.15;48.90;102005.06;146599;710;46016;-72
2022/02/11 06:34:54;;;;;;;;;29.00;26.00;;;;;14.74;46.46;102002.34;146600;632;47008;-74
2022/02/11 06:37:48;;;;;;;;;32.50;29.00;;;;;15.07;45.67;101991.00;146599;614;46016;-73
2022/02/11 06:40:41;;;;;;;;;49.50;39.75;;;;;15.25;45.79;101991.97;146592;733;46020;-71
2022/02/11 06:43:33;;;;;;;;;37.75;33.00;;;;;15.57;44.93;101991.00;146598;592;46017;-69
2022/02/11 06:46:24;;;;;;;;;32.00;30.50;;;;;15.80;43.97;101986.09;146600;641;46008;-70
2022/02/11 06:49:17;;;;;;;;;29.25;29.00;;;;;15.89;43.72;101986.56;146597;588;47010;-69
2022/02/11 06:52:09;;;;;;;;;31.00;28.00;;;;;15.84;43.17;101985.41;146602;563;46021;-73
2022/02/11 06:55:01;;;;;;;;;51.50;40.75;;;;;15.61;42.48;101979.00;146601;598;46914;-73
2022/02/11 06:57:54;;;;;;;;;54.00;42.25;;;;;15.25;44.55;101990.25;146598;593;46020;-73
2022/02/11 07:00:51;;;;;;;;;32.00;30.00;;;;;15.12;44.25;101989.53;146599;565;46016;-73
2022/02/11 07:03:43;;;;;;;;;36.50;33.00;;;;;15.05;44.14;101990.94;146599;587;46916;-74
2022/02/11 07:06:35;;;;;;;;;46.75;38.50;;;;;15.00;44.44;101982.84;146598;569;46029;-76
2022/02/11 07:09:28;;;;;;;;;35.00;31.00;;;;;14.97;45.08;101987.88;146592;564;46020;-70
2022/02/11 07:12:20;;;;;;;;;47.00;36.25;;;;;14.93;44.59;101991.16;146596;618;46017;-75
2022/02/11 07:15:13;;;;;;;;;49.50;39.25;;;;;14.78;45.28;101996.44;146597;744;46008;-76
2022/02/11 07:18:05;;;;;;;;;44.75;37.75;;;;;14.64;45.21;102002.66;146599;706;46016;-75
2022/02/11 07:20:58;;;;;;;;;45.50;35.50;;;;;14.55;45.87;101994.31;146597;609;46021;-71
2022/02/11 07:23:50;;;;;;;;;38.25;32.75;;;;;14.47;46.03;101988.63;146596;633;46016;-73
2022/02/11 07:26:42;;;;;;;;;38.25;32.00;;;;;14.40;45.99;101988.19;146597;637;46020;-73
2022/02/11 07:29:35;;;;;;;;;41.50;36.25;;;;;14.37;45.85;101986.31;146602;638;46010;-73
2022/02/11 07:32:28;;;;;;;;;45.50;36.00;;;;;14.42;46.15;101997.00;146594;694;46020;-73
2022/02/11 07:35:20;;;;;;;;;49.25;39.25;;;;;14.44;45.93;101987.56;146601;578;47011;-73
2022/02/11 07:38:12;;;;;;;;;49.25;39.00;;;;;14.50;46.38;101985.28;146585;628;47020;-73
2022/02/11 07:41:04;;;;;;;;;41.25;33.75;;;;;14.52;46.29;101988.91;146593;569;45914;-73
2022/02/11 07:43:57;;;;;;;;;45.50;37.75;;;;;14.51;46.23;101985.38;146598;570;46021;-72
2022/02/11 07:46:51;;;;;;;;;41.00;35.75;;;;;14.54;45.86;101980.34;146599;621;46913;-74
2022/02/11 07:49:43;;;;;;;;;44.50;34.75;;;;;14.65;46.83;101980.06;146599;571;46020;-74
2022/02/11 07:52:35;;;;;;;;;25.50;24.50;;;;;14.74;45.78;101983.16;146597;570;46016;-73
2022/02/11 07:55:28;;;;;;;;;48.00;38.25;;;;;14.78;46.12;101972.94;146599;681;47008;-73
2022/02/11 07:58:24;;;;;;;;;45.75;37.75;;;;;14.75;45.97;101977.12;146595;613;46010;-73
2022/02/11 08:01:19;;;;;;;;;45.50;38.00;;;;;14.77;46.47;101970.28;146595;702;47008;-73
2022/02/11 08:04:11;;;;;;;;;50.25;39.75;;;;;14.87;46.65;101971.66;146599;585;46016;-74
2022/02/11 08:07:03;;;;;;;;;48.75;38.75;;;;;14.92;46.86;101972.78;146591;564;46021;-73
2022/02/11 08:09:55;;;;;;;;;41.50;34.75;;;;;15.06;46.20;101968.31;146597;582;46016;-73
2022/02/11 08:12:48;;;;;;;;;44.00;35.50;;;;;15.19;45.91;101962.91;146596;684;47009;-74
2022/02/11 08:15:40;;;;;;;;;49.00;38.00;;;;;15.28;46.11;101963.38;146595;609;47010;-73
2022/02/11 08:18:32;;;;;;;;;41.50;34.00;;;;;15.36;46.13;101953.34;146596;566;46020;-73
2022/02/11 08:21:25;;;;;;;;;39.75;34.50;;;;;15.42;45.66;101956.25;146597;694;46016;-73
2022/02/11 08:24:19;;;;;;;;;44.75;35.50;;;;;15.53;45.73;101954.19;146601;563;46020;-73
2022/02/11 08:27:14;;;;;;;;;42.50;35.75;;;;;15.63;45.84;101956.44;146602;571;46011;-74
2022/02/11 08:30:06;;;;;;;;;43.00;32.50;;;;;15.74;45.44;101955.31;146600;563;47012;-79
2022/02/11 08:32:58;;;;;;;;;43.50;35.75;;;;;15.88;46.01;101959.47;146593;563;46914;-77
2022/02/11 08:35:51;;;;;;;;;56.75;44.00;;;;;15.98;45.46;101959.94;146591;709;46021;-73
2022/02/11 08:38:43;;;;;;;;;55.00;43.50;;;;;16.01;46.25;101971.47;146592;632;46016;-78
2022/02/11 08:41:35;;;;;;;;;48.25;39.50;;;;;16.09;44.94;101966.59;146598;571;46021;-73
2022/02/11 08:44:28;;;;;;;;;46.50;39.50;;;;;16.12;45.74;101967.62;146600;574;46016;-73
2022/02/11 08:47:20;;;;;;;;;46.00;37.25;;;;;16.25;46.44;101970.84;146602;794;46020;-74
2022/02/11 08:50:18;;;;;;;;;48.25;40.00;;;;;16.35;45.96;101967.84;146599;672;46016;-74
2022/02/11 08:53:10;;;;;;;;;49.00;40.50;;;;;16.48;45.30;101971.94;146600;564;46012;-74
2022/02/11 08:56:03;;;;;;;;;27.50;25.50;;;;;16.52;44.77;101972.16;146592;601;46012;-74
2022/02/11 08:58:56;;;;;;;;;37.25;31.75;;;;;16.56;45.18;101973.19;146601;617;46008;-73
2022/02/11 09:01:48;;;;;;;;;39.75;31.25;;;;;16.60;45.07;101967.25;146600;629;46914;-75
2022/02/11 09:04:40;;;;;;;;;38.00;32.00;;;;;16.57;44.80;101967.12;146593;605;46008;-73
2022/02/11 09:07:32;;;;;;;;;37.75;31.50;;;;;16.55;45.50;101964.44;146594;564;47010;-73
2022/02/11 09:10:28;;;;;;;;;33.50;29.50;;;;;16.57;45.70;101962.81;146601;581;46020;-74
2022/02/11 09:13:23;;;;;;;;;27.75;25.50;;;;;16.62;46.65;101953.44;146599;626;46913;-74
2022/02/11 09:16:15;;;;;;;;;26.00;24.75;;;;;16.72;45.34;101948.59;146596;611;47012;-73
2022/02/11 09:19:09;;;;;;;;;24.25;23.25;;;;;16.73;45.24;101940.84;146596;569;47010;-73
2022/02/11 09:22:02;;;;;;;;;18.50;17.50;;;;;16.67;45.52;101939.66;146597;566;46020;-72
2022/02/11 09:24:54;;;;;;;;;20.75;20.00;;;;;16.54;45.51;101940.78;146597;578;47013;-70
2022/02/11 09:27:47;;;;;;;;;25.25;22.50;;;;;16.46;45.75;101937.84;146590;571;48936;-76
2022/02/11 09:30:40;;;;;;;;;19.00;18.00;;;;;16.43;46.61;101937.69;146597;583;46012;-73
2022/02/11 09:33:33;;;;;;;;;20.50;20.25;;;;;16.45;45.71;101936.06;146590;593;46021;-73
2022/02/11 09:36:26;;;;;;;;;21.50;18.00;;;;;16.46;45.86;101926.47;146593;644;46016;-73
2022/02/11 09:39:18;;;;;;;;;16.50;16.00;;;;;16.45;46.24;101933.44;146599;599;47008;-73
2022/02/11 09:42:11;;;;;;;;;22.50;19.75;;;;;16.39;46.04;101930.53;146595;571;47010;-73
2022/02/11 09:45:06;;;;;;;;;20.25;16.50;;;;;16.30;46.02;101928.37;146595;569;46020;-72
2022/02/11 09:47:58;;;;;;;;;21.25;20.00;;;;;16.23;46.49;101926.31;146598;571;46010;-72
2022/02/11 09:50:53;;;;;;;;;22.50;20.75;;;;;16.22;46.90;101923.59;146596;593;46020;-74
2022/02/11 09:53:45;;;;;;;;;22.25;20.00;;;;;16.31;47.49;101924.03;146601;689;46016;-73
2022/02/11 09:56:37;;;;;;;;;18.00;16.75;;;;;16.42;47.56;101922.81;146596;579;46914;-72
2022/02/11 09:59:30;;;;;;;;;23.25;22.25;;;;;16.49;47.51;101908.28;146598;595;46921;-73
2022/02/11 10:02:22;;;;;;;;;30.00;27.50;;;;;16.57;47.89;101907.81;146590;570;46021;-74
2022/02/11 10:05:26;;;;;;;;;28.75;25.75;;;;;16.63;47.36;101902.88;146595;589;46010;-72
2022/02/11 10:08:20;;;;;;;;;32.25;27.50;;;;;16.70;48.17;101895.25;146598;584;46008;-73
2022/02/11 10:11:15;;;;;;;;;31.50;28.75;;;;;16.83;48.46;101885.44;146599;570;47012;-74
2022/02/11 10:14:36;;;;;;;;;28.50;27.25;;;;;17.02;46.84;101878.38;146595;603;46020;-73
2022/02/11 10:17:28;;;;;;;;;27.75;24.75;;;;;17.08;47.24;101870.78;146596;579;46017;-74
2022/02/11 10:20:22;;;;;;;;;33.00;30.00;;;;;17.17;45.56;101863.31;146599;595;47008;-74
2022/02/11 10:23:36;;;;;;;;;32.00;29.75;;;;;17.22;45.29;101864.41;146600;626;46017;-73
2022/02/11 10:26:28;;;;;;;;;29.75;27.75;;;;;17.33;46.31;101857.00;146598;564;46020;-73
2022/02/11 10:29:21;;;;;;;;;27.25;23.75;;;;;17.47;46.36;101842.72;146596;620;46016;-74
2022/02/11 10:32:13;;;;;;;;;33.50;29.50;;;;;17.70;45.99;101845.41;146586;615;47914;-74
2022/02/11 10:35:06;;;;;;;;;33.00;29.00;;;;;17.88;47.09;101842.63;146600;599;46016;-74
2022/02/11 10:38:17;;;;;;;;;35.00;28.25;;;;;18.09;46.04;101837.31;146599;610;46008;-73
2022/02/11 10:41:09;;;;;;;;;29.25;28.75;;;;;18.07;45.58;101824.16;146593;622;46916;-74
2022/02/11 10:44:03;;;;;;;;;33.00;27.75;;;;;18.08;46.51;101817.16;146596;614;46020;-74
2022/02/11 10:46:58;;;;;;;;;29.50;28.00;;;;;18.11;46.14;101815.53;146600;589;46010;-74
2022/02/11 10:49:53;;;;;;;;;30.75;26.25;;;;;18.16;46.24;101816.63;146596;578;46008;-73
2022/02/11 10:52:55;;;;;;;;;29.50;26.50;;;;;18.21;46.55;101801.91;146599;583;47010;-74
2022/02/11 10:55:52;;;;;;;;;30.50;28.00;;;;;18.30;46.28;101798.75;146599;607;46021;-74
2022/02/11 10:58:47;;;;;;;;;31.25;28.00;;;;;18.29;45.82;101786.47;146599;610;46016;-73
2022/02/11 11:01:39;;;;;;;;;32.00;28.25;;;;;18.33;45.85;101788.34;146592;580;46008;-74
2022/02/11 11:04:33;;;;;;;;;31.00;29.00;;;;;18.32;46.10;101794.47;146599;571;46016;-73
2022/02/11 11:07:34;;;;;;;;;33.50;31.00;;;;;18.33;46.18;101783.09;146602;625;46020;-73
2022/02/11 11:10:27;;;;;;;;;36.75;32.25;;;;;18.37;43.69;101785.00;146599;576;46017;-74
2022/02/11 11:13:20;;;;;;;;;38.75;32.50;;;;;18.42;44.69;101782.56;146600;593;46008;-73
2022/02/11 11:16:17;;;;;;;;;42.00;35.00;;;;;18.42;45.52;101770.31;146594;567;46016;-74
2022/02/11 11:19:09;;;;;;;;;57.50;46.00;;;;;18.47;44.79;101762.56;146599;564;47008;-74
2022/02/11 11:22:11;;;;;;;;;56.75;44.00;;;;;18.32;45.11;101762.06;146597;577;46916;-74
2022/02/11 11:25:05;;;;;;;;;46.50;38.50;;;;;18.06;45.17;101747.97;146603;684;46012;-74
2022/02/11 11:28:01;;;;;;;;;48.75;39.50;;;;;17.91;45.34;101746.56;146600;628;46033;-74
2022/02/11 11:30:56;;;;;;;;;41.25;35.75;;;;;17.95;46.23;101739.72;146592;588;46009;-74
2022/02/11 11:33:49;;;;;;;;;38.75;32.25;;;;;17.93;45.91;101733.50;146598;608;46010;-73
2022/02/11 11:36:45;;;;;;;;;39.50;33.75;;;;;17.90;46.65;101731.66;146602;601;46008;-73
2022/02/11 11:39:38;;;;;;;;;39.25;32.25;;;;;17.80;46.80;101728.63;146593;616;47012;-75
2022/02/11 11:42:30;;;;;;;;;34.50;29.75;;;;;17.72;46.55;101731.81;146602;615;46020;-74
2022/02/11 11:45:32;;;;;;;;;34.75;30.75;;;;;17.64;45.22;101725.37;146584;606;47010;-73
2022/02/11 11:48:24;;;;;;;;;34.75;30.50;;;;;17.49;44.29;101727.41;146585;634;47008;-73
2022/02/11 11:51:16;;;;;;;;;30.75;29.00;;;;;17.39;44.72;101720.03;146588;628;46012;-73
2022/02/11 11:54:41;;;;;;;;;32.75;29.25;;;;;15.60;45.30;101387.25;146587;604;46020;-73
2022/02/11 11:57:40;;;;;;;;;27.00;25.75;;;;;17.63;42.67;101709.56;146586;602;46913;-74
2022/02/11 12:00:43;;;;;;;;;40.75;32.00;;;;;17.77;42.32;101709.31;146589;582;46008;-74
2022/02/11 12:03:38;;;;;;;;;27.25;26.50;;;;;17.85;42.39;101707.00;146587;588;46010;-73
2022/02/11 12:06:34;;;;;;;;;32.00;29.50;;;;;17.83;41.55;101702.50;146588;611;46008;-74
2022/02/11 12:09:26;;;;;;;;;20.25;18.75;;;;;17.74;43.02;101684.66;146587;643;46033;-74
2022/02/11 12:12:21;;;;;;;;;36.75;32.50;;;;;17.75;44.05;101687.31;146588;621;46020;-74
2022/02/11 12:15:14;;;;;;;;;36.50;32.50;;;;;17.85;42.79;101686.00;146587;638;46016;-74
2022/02/11 12:18:06;;;;;;;;;37.75;31.75;;;;;17.05;42.00;101515.19;146589;579;46020;-74
2022/02/11 12:20:59;;;;;;;;;28.50;27.50;;;;;17.96;40.90;101682.00;146591;648;46010;-75
2022/02/11 12:27:22;;;;;;;;;26.50;25.50;;;;;18.05;40.32;101677.94;146584;595;46016;-75
2022/02/11 12:30:27;;;;;;;;;24.50;20.75;;;;;18.25;42.61;101679.53;146587;590;46021;-73
2022/02/11 12:33:19;;;;;;;;;23.00;21.00;;;;;18.32;41.32;101668.44;146586;569;46016;-74
2022/02/11 12:36:14;;;;;;;;;18.50;16.25;;;;;18.36;40.74;101674.69;146587;631;46012;-73
2022/02/11 12:39:08;;;;;;;;;17.00;16.00;;;;;18.41;40.60;101671.38;146585;569;46016;-73
2022/02/11 12:42:01;;;;;;;;;17.25;16.25;;;;;17.68;41.09;101513.94;146589;606;46020;-73
2022/02/11 12:45:11;;;;;;;;;12.25;11.50;;;;;18.84;40.78;101669.31;146602;669;46010;-72
2022/02/11 12:48:05;;;;;;;;;13.75;12.00;;;;;19.08;39.78;101661.31;146602;602;46008;-71
2022/02/11 12:50:58;;;;;;;;;11.50;11.50;;;;;19.23;39.25;101658.28;146599;577;46016;-71
2022/02/11 12:53:50;;;;;;;;;11.25;9.75;;;;;19.44;38.64;101648.41;146601;621;45914;-74
2022/02/11 12:56:42;;;;;;;;;16.00;15.00;;;;;19.54;37.35;101647.81;146588;591;46016;-72
2022/02/11 12:59:35;;;;;;;;;8.00;5.75;;;;;19.63;35.29;101649.84;146594;720;46025;-72
2022/02/11 13:02:36;;;;;;;;;7.75;7.50;;;;;19.57;34.44;101644.41;146599;569;47010;-73
2022/02/11 13:05:36;;;;;;;;;7.50;7.50;;;;;19.36;34.96;101645.53;146598;593;47007;-74
2022/02/11 13:08:32;;;;;;;;;9.25;7.00;;;;;19.22;37.89;101641.62;146596;638;47012;-74
2022/02/11 13:11:27;;;;;;;;;7.50;7.50;;;;;19.34;36.88;101630.56;146598;646;46020;-74
2022/02/11 13:14:19;;;;;;;;;6.50;6.25;;;;;19.53;37.42;101627.63;146595;576;47011;-74
2022/02/11 13:17:15;;;;;;;;;11.75;9.75;;;;;19.73;37.83;101625.59;146600;577;46020;-74
2022/02/11 13:20:33;;;;;;;;;9.00;8.50;;;;;18.97;37.23;101460.31;146600;581;47010;-75
2022/02/11 13:23:27;;;;;;;;;5.67;5.67;;;;;19.60;35.42;101557.66;146603;571;47006;-75
2022/02/11 13:26:20;;;;;;;;;8.75;8.75;;;;;20.01;37.34;101626.37;146599;692;46016;-75
2022/02/11 13:29:18;;;;;;;;;6.75;6.75;;;;;20.08;36.11;101634.44;146599;675;46020;-75
2022/02/11 13:32:11;;;;;;;;;7.25;6.75;;;;;20.19;36.09;101637.37;146600;671;47010;-75
2022/02/11 13:35:09;;;;;;;;;12.00;6.75;;;;;20.23;35.70;101639.25;146604;582;47008;-76
2022/02/11 13:38:04;;;;;;;;;22.25;19.75;;;;;20.21;34.07;101629.50;146597;564;47012;-75
2022/02/11 13:41:03;;;;;;;;;17.50;15.00;;;;;20.04;33.51;101629.97;146599;604;46020;-75
2022/02/11 13:43:58;;;;;;;;;12.75;8.25;;;;;19.87;33.22;101632.97;146597;576;47010;-75
2022/02/11 13:46:56;;;;;;;;;7.00;6.00;;;;;19.83;36.20;101630.25;146598;585;46020;-75
2022/02/11 13:49:51;;;;;;;;;6.50;4.75;;;;;19.77;31.88;101629.19;146601;581;46016;-75
2022/02/11 13:53:02;;;;;;;;;8.50;8.00;;;;;19.75;37.41;101633.53;146595;638;46021;-74
2022/02/11 13:55:55;;;;;;;;;2.75;2.75;;;;;19.74;36.57;101630.00;146601;694;47010;-75
2022/02/11 13:59:09;;;;;;;;;7.00;6.25;;;;;19.74;39.35;101632.63;146596;565;46012;-74
2022/02/11 14:02:10;;;;;;;;;5.50;4.50;;;;;19.81;37.37;101629.34;146595;598;46010;-74
2022/02/11 14:05:07;;;;;;;;;7.25;5.75;;;;;19.88;37.20;101624.25;146600;612;46020;-74
2022/02/11 14:08:00;;;;;;;;;5.75;5.00;;;;;19.86;36.33;101624.19;146595;711;46012;-74
2022/02/11 14:11:10;;;;;;;;;7.00;7.00;;;;;19.89;36.56;101629.53;146601;577;46008;-75
2022/02/11 14:14:21;;;;;;;;;9.75;8.00;;;;;19.97;36.86;101625.41;146597;647;46017;-75
2022/02/11 14:17:13;;;;;;;;;9.75;8.50;;;;;19.85;35.36;101630.31;146599;570;47008;-75
2022/02/11 14:20:09;;;;;;;;;7.25;6.75;;;;;19.62;37.25;101627.00;146600;588;46016;-75
2022/02/11 14:23:22;;;;;;;;;5.67;5.67;;;;;19.32;38.63;101624.38;146600;576;46021;-75
2022/02/11 14:26:15;;;;;;;;;11.50;10.75;;;;;19.03;38.34;101618.22;146601;587;46010;-75
2022/02/11 14:29:08;;;;;;;;;8.50;7.25;;;;;18.69;37.69;101611.84;146589;623;46914;-75
2022/02/11 14:32:00;;;;;;;;;10.25;9.75;;;;;18.36;39.83;101609.91;146591;599;46016;-75
2022/02/11 14:34:52;;;;;;;;;14.75;14.25;;;;;18.05;39.85;101600.09;146600;594;46008;-75
2022/02/11 14:37:45;;;;;;;;;14.00;13.00;;;;;17.88;41.21;101601.22;146596;616;46010;-75
2022/02/11 14:40:38;;;;;;;;;19.50;15.00;;;;;17.64;40.94;101589.00;146598;716;46020;-75
2022/02/11 14:43:30;;;;;;;;;20.75;17.00;;;;;17.43;42.14;101586.47;146595;595;46916;-74
2022/02/11 14:46:22;;;;;;;;;15.50;14.75;;;;;17.25;42.46;101588.41;146596;570;46020;-75
2022/02/11 14:49:17;;;;;;;;;13.25;12.25;;;;;17.01;42.61;101588.41;146594;580;46016;-75
2022/02/11 14:52:16;;;;;;;;;18.00;16.75;;;;;16.66;43.68;101571.22;146596;613;46008;-75
2022/02/11 14:55:08;;;;;;;;;21.00;19.50;;;;;16.46;44.04;101584.41;146597;639;46012;-74
2022/02/11 14:58:02;;;;;;;;;18.50;14.25;;;;;16.18;44.23;101582.37;146591;569;46020;-74
2022/02/11 15:00:54;;;;;;;;;15.50;14.00;;;;;16.03;45.66;101582.63;146595;653;47010;-75
2022/02/11 15:03:47;;;;;;;;;18.50;16.50;;;;;15.92;45.80;101583.91;146597;584;46020;-75
2022/02/11 15:06:39;;;;;;;;;11.50;11.50;;;;;15.77;45.39;101581.50;146590;581;47012;-74
2022/02/11 15:09:32;;;;;;;;;11.25;10.25;;;;;15.66;46.66;101585.31;146598;569;46020;-75
2022/02/11 15:12:24;;;;;;;;;12.50;10.25;;;;;15.56;48.01;101589.25;146593;674;46016;-76
2022/02/11 15:15:16;;;;;;;;;9.75;9.00;;;;;15.45;49.01;101587.88;146594;579;46020;-75
2022/02/11 15:18:09;;;;;;;;;12.75;11.75;;;;;15.34;49.63;101587.41;146599;593;46010;-74
2022/02/11 15:21:06;;;;;;;;;16.75;12.75;;;;;15.24;50.08;101593.03;146598;658;46020;-74
2022/02/11 15:23:58;;;;;;;;;15.25;13.00;;;;;15.10;51.15;101591.47;146595;587;46024;-74
2022/02/11 15:26:51;;;;;;;;;14.50;12.25;;;;;14.88;52.62;101581.75;146591;581;46020;-75
2022/02/11 15:29:44;;;;;;;;;14.50;13.50;;;;;14.75;53.26;101582.87;146593;735;46016;-74
2022/02/11 15:32:36;;;;;;;;;13.25;12.75;;;;;14.59;54.56;101590.81;146600;569;46008;-74
2022/02/11 15:35:29;;;;;;;;;16.50;14.75;;;;;14.51;54.64;101590.41;146598;565;46010;-74
2022/02/11 15:38:22;;;;;;;;;23.75;19.50;;;;;13.47;55.94;101418.31;146597;629;46020;-74
2022/02/11 15:41:15;;;;;;;;;20.50;18.50;;;;;14.40;56.64;101588.97;146594;591;46012;-74
2022/02/11 15:44:07;;;;;;;;;16.00;16.00;;;;;14.35;55.37;101586.13;146595;565;46021;-74
2022/02/11 15:46:59;;;;;;;;;11.00;11.00;;;;;14.32;55.18;101588.56;146592;570;47938;-74
2022/02/11 15:49:52;;;;;;;;;11.75;11.75;;;;;14.34;55.04;101597.38;146599;643;46008;-74
2022/02/11 15:52:44;;;;;;;;;12.50;11.75;;;;;14.33;55.33;101598.22;146595;633;47012;-74
2022/02/11 15:55:36;;;;;;;;;15.50;14.00;;;;;14.34;56.20;101605.22;146592;598;46020;-74
2022/02/11 15:58:29;;;;;;;;;19.25;17.25;;;;;14.30;55.95;101604.16;146596;577;46017;-74
2022/02/11 16:01:21;;;;;;;;;19.50;18.75;;;;;14.27;55.61;101605.72;146599;607;46020;-74
2022/02/11 16:04:13;;;;;;;;;33.00;29.25;;;;;14.16;54.69;101610.38;146597;599;46010;-75
2022/02/11 16:07:06;;;;;;;;;40.25;34.00;;;;;14.11;55.38;101611.84;146597;581;46008;-74
2022/02/11 16:10:01;;;;;;;;;24.75;22.25;;;;;14.05;55.69;101617.69;146593;684;46916;-74
2022/02/11 16:12:53;;;;;;;;;35.75;32.00;;;;;13.94;56.79;101610.13;146593;634;46021;-74
2022/02/11 16:15:47;;;;;;;;;38.00;32.50;;;;;13.80;56.21;101618.12;146591;596;46012;-74
2022/02/11 16:18:39;;;;;;;;;68.75;52.75;;;;;13.63;56.77;101616.31;146595;604;46020;-74
2022/02/11 16:21:32;;;;;;;;;93.67;82.67;;;;;13.47;56.69;101618.94;146596;653;46017;-74
2022/02/11 16:24:24;;;;;;;;;78.67;70.33;;;;;13.26;56.95;101629.09;146597;584;46020;-74
2022/02/11 16:27:18;;;;;;;;;59.00;45.75;;;;;13.05;58.49;101623.53;146594;585;46017;-74
2022/02/11 16:30:11;;;;;;;;;55.75;44.25;;;;;12.83;57.83;101630.16;146600;577;46008;-68
2022/02/11 16:33:03;;;;;;;;;54.75;44.50;;;;;12.65;58.06;101630.03;146600;704;46013;-67
2022/02/11 16:35:55;;;;;;;;;56.50;44.50;;;;;12.54;59.30;101635.41;146594;607;46021;-67
2022/02/11 16:38:50;;;;;;;;;71.25;54.75;;;;;12.41;59.06;101637.31;146587;595;47012;-73
2022/02/11 16:41:42;;;;;;;;;67.25;52.50;;;;;11.38;59.24;101482.19;146597;581;46021;-74
2022/02/11 16:44:35;;;;;;;;;53.25;43.25;;;;;12.21;59.02;101648.22;146595;618;46016;-75
2022/02/11 16:47:28;;;;;;;;;62.00;48.75;;;;;12.15;58.91;101643.59;146595;584;46020;-74
2022/02/11 16:50:20;;;;;;;;;49.00;37.50;;;;;12.10;59.42;101638.91;146595;564;46010;-74
2022/02/11 16:53:12;;;;;;;;;47.25;39.50;;;;;12.04;59.49;101639.44;146592;633;47008;-74
2022/02/11 16:56:05;;;;;;;;;54.50;44.00;;;;;11.95;59.82;101651.88;146592;687;47013;-74
2022/02/11 16:58:57;;;;;;;;;51.50;41.75;;;;;11.85;59.56;101647.81;146595;579;47008;-74
2022/02/11 17:01:50;;;;;;;;;65.00;51.25;;;;;11.81;59.28;101656.22;146596;595;47010;-74
2022/02/11 17:04:42;;;;;;;;;49.50;40.25;;;;;11.77;59.44;101659.41;146600;574;46008;-74
2022/02/11 17:07:34;;;;;;;;;47.50;38.00;;;;;11.69;59.37;101653.75;146594;563;46016;-74
2022/02/11 17:10:27;;;;;;;;;64.00;50.00;;;;;11.65;59.04;101669.03;146590;613;47914;-74
2022/02/11 17:13:19;;;;;;;;;54.75;43.25;;;;;11.58;59.69;101662.56;146593;601;46016;-74
2022/02/11 17:16:13;;;;;;;;;57.75;45.50;;;;;11.52;59.45;101664.78;146595;668;46020;-74
2022/02/11 17:19:06;;;;;;;;;60.00;46.50;;;;;11.47;59.23;101663.63;146597;622;46016;-74
2022/02/11 17:21:58;;;;;;;;;59.50;46.00;;;;;11.46;58.50;101670.50;146591;595;46020;-74
2022/02/11 17:24:51;;;;;;;;;65.75;51.75;;;;;11.46;58.91;101656.63;146595;716;46016;-74
2022/02/11 17:27:44;;;;;;;;;53.50;43.50;;;;;11.47;58.54;101661.91;146597;611;46020;-74
2022/02/11 17:30:37;;;;;;;;;52.25;41.75;;;;;11.51;59.61;101666.50;146595;586;46026;-74